sensor_id;sensor_type;location;lat;lon;timestamp;temperature;humidity
7427;DHT22;3755;59.316;18.092;2023-04-06T00:00:50;-0.30;99.90
7427;DHT22;3755;59.316;18.092;2023-04-06T00:03:19;-0.30;99.90
7427;DHT22;3755;59.316;18.092;2023-04-06T00:05:47;-0.30;99.90
7427;DHT22;3755;59.316;18.092;2023-04-06T00:08:15;-0.40;99.90
7427;DHT22;3755;59.316;18.092;2023-04-06T00:10:43;-0.40;99.90
7427;DHT22;3755;59.316;18.092;2023-04-06T00:13:12;-0.40;99.90
7427;DHT22;3755;59.316;18.092;2023-04-06T00:15:41;-0.40;99.90
7427;DHT22;3755;59.316;18.092;2023-04-06T00:18:09;-0.40;99.90
7427;DHT22;3755;59.316;18.092;2023-04-06T00:20:36;-0.40;99.90
7427;DHT22;3755;59.316;18.092;2023-04-06T00:23:04;-0.40;99.90
7427;DHT22;3755;59.316;18.092;2023-04-06T00:25:33;-0.50;99.90
7427;DHT22;3755;59.316;18.092;2023-04-06T00:28:01;-0.50;99.90
7427;DHT22;3755;59.316;18.092;2023-04-06T00:30:31;-0.50;99.90
7427;DHT22;3755;59.316;18.092;2023-04-06T00:33:01;-0.60;99.90
7427;DHT22;3755;59.316;18.092;2023-04-06T00:35:28;-0.60;99.90
7427;DHT22;3755;59.316;18.092;2023-04-06T00:37:56;-0.60;99.90
7427;DHT22;3755;59.316;18.092;2023-04-06T00:40:24;-0.60;99.90
7427;DHT22;3755;59.316;18.092;2023-04-06T00:42:54;-0.60;99.90
7427;DHT22;3755;59.316;18.092;2023-04-06T00:45:22;-0.50;99.90
7427;DHT22;3755;59.316;18.092;2023-04-06T00:47:51;-0.50;99.90
7427;DHT22;3755;59.316;18.092;2023-04-06T00:50:19;-0.50;99.90
7427;DHT22;3755;59.316;18.092;2023-04-06T00:52:48;-0.50;99.90
7427;DHT22;3755;59.316;18.092;2023-04-06T00:55:16;-0.40;99.90
7427;DHT22;3755;59.316;18.092;2023-04-06T00:57:44;-0.50;99.90
7427;DHT22;3755;59.316;18.092;2023-04-06T01:00:13;-0.50;99.90
7427;DHT22;3755;59.316;18.092;2023-04-06T01:02:40;-0.50;99.90
7427;DHT22;3755;59.316;18.092;2023-04-06T01:05:10;-0.80;99.90
7427;DHT22;3755;59.316;18.092;2023-04-06T01:07:44;-0.50;99.90
7427;DHT22;3755;59.316;18.092;2023-04-06T01:10:23;-0.60;99.90
7427;DHT22;3755;59.316;18.092;2023-04-06T01:12:51;-0.60;99.90
7427;DHT22;3755;59.316;18.092;2023-04-06T01:15:19;-0.60;99.90
7427;DHT22;3755;59.316;18.092;2023-04-06T01:17:47;-0.60;99.90
7427;DHT22;3755;59.316;18.092;2023-04-06T01:20:17;-0.60;99.90
7427;DHT22;3755;59.316;18.092;2023-04-06T01:22:46;-0.60;99.90
7427;DHT22;3755;59.316;18.092;2023-04-06T01:25:14;-0.60;99.90
7427;DHT22;3755;59.316;18.092;2023-04-06T01:27:42;-0.70;99.90
7427;DHT22;3755;59.316;18.092;2023-04-06T01:30:11;-0.60;99.90
7427;DHT22;3755;59.316;18.092;2023-04-06T01:32:38;-0.60;99.90
7427;DHT22;3755;59.316;18.092;2023-04-06T01:35:07;-0.60;99.90
7427;DHT22;3755;59.316;18.092;2023-04-06T01:37:35;-0.50;99.90
7427;DHT22;3755;59.316;18.092;2023-04-06T01:40:06;-0.50;99.90
7427;DHT22;3755;59.316;18.092;2023-04-06T01:42:33;-0.30;99.90
7427;DHT22;3755;59.316;18.092;2023-04-06T01:45:01;-0.40;99.90
7427;DHT22;3755;59.316;18.092;2023-04-06T01:47:29;-0.40;99.90
7427;DHT22;3755;59.316;18.092;2023-04-06T01:49:57;-0.30;99.90
7427;DHT22;3755;59.316;18.092;2023-04-06T01:52:44;-0.20;99.90
7427;DHT22;3755;59.316;18.092;2023-04-06T01:58:42;-0.20;99.90
7427;DHT22;3755;59.316;18.092;2023-04-06T02:01:10;-0.10;99.90
7427;DHT22;3755;59.316;18.092;2023-04-06T02:03:40;-0.10;99.90
7427;DHT22;3755;59.316;18.092;2023-04-06T02:06:11;-0.10;99.90
7427;DHT22;3755;59.316;18.092;2023-04-06T02:08:38;-0.20;99.90
7427;DHT22;3755;59.316;18.092;2023-04-06T02:11:06;-0.10;99.90
7427;DHT22;3755;59.316;18.092;2023-04-06T02:13:33;-0.10;99.90
7427;DHT22;3755;59.316;18.092;2023-04-06T02:16:03;-0.10;99.90
7427;DHT22;3755;59.316;18.092;2023-04-06T02:18:31;-0.10;99.90
7427;DHT22;3755;59.316;18.092;2023-04-06T02:20:58;0.00;99.90
7427;DHT22;3755;59.316;18.092;2023-04-06T02:23:26;0.00;99.90
7427;DHT22;3755;59.316;18.092;2023-04-06T02:26:00;0.00;99.90
7427;DHT22;3755;59.316;18.092;2023-04-06T02:28:36;0.00;99.90
7427;DHT22;3755;59.316;18.092;2023-04-06T02:41:25;0.10;99.90
7427;DHT22;3755;59.316;18.092;2023-04-06T02:43:57;0.10;99.90
7427;DHT22;3755;59.316;18.092;2023-04-06T02:46:24;0.10;99.90
7427;DHT22;3755;59.316;18.092;2023-04-06T02:48:52;0.20;99.90
7427;DHT22;3755;59.316;18.092;2023-04-06T02:51:20;0.20;99.90
7427;DHT22;3755;59.316;18.092;2023-04-06T02:53:50;0.20;99.90
7427;DHT22;3755;59.316;18.092;2023-04-06T02:56:20;0.20;99.90
7427;DHT22;3755;59.316;18.092;2023-04-06T02:58:48;0.30;99.90
7427;DHT22;3755;59.316;18.092;2023-04-06T03:01:16;0.30;99.90
7427;DHT22;3755;59.316;18.092;2023-04-06T03:03:44;0.30;99.90
7427;DHT22;3755;59.316;18.092;2023-04-06T03:06:12;0.30;99.90
7427;DHT22;3755;59.316;18.092;2023-04-06T03:08:39;0.40;99.90
7427;DHT22;3755;59.316;18.092;2023-04-06T03:11:10;0.40;99.90
7427;DHT22;3755;59.316;18.092;2023-04-06T03:13:38;0.40;99.90
7427;DHT22;3755;59.316;18.092;2023-04-06T03:16:05;0.20;99.90
7427;DHT22;3755;59.316;18.092;2023-04-06T03:18:33;0.40;99.90
7427;DHT22;3755;59.316;18.092;2023-04-06T03:21:00;0.40;99.90
7427;DHT22;3755;59.316;18.092;2023-04-06T03:23:27;0.50;99.90
7427;DHT22;3755;59.316;18.092;2023-04-06T03:25:55;0.50;99.90
7427;DHT22;3755;59.316;18.092;2023-04-06T03:28:25;0.50;99.90
7427;DHT22;3755;59.316;18.092;2023-04-06T03:30:55;0.50;99.90
7427;DHT22;3755;59.316;18.092;2023-04-06T03:33:22;0.50;99.90
7427;DHT22;3755;59.316;18.092;2023-04-06T03:35:52;0.50;99.90
7427;DHT22;3755;59.316;18.092;2023-04-06T03:38:20;0.50;99.90
7427;DHT22;3755;59.316;18.092;2023-04-06T03:40:49;0.50;99.90
7427;DHT22;3755;59.316;18.092;2023-04-06T03:43:17;0.50;99.90
7427;DHT22;3755;59.316;18.092;2023-04-06T03:45:46;0.40;99.90
7427;DHT22;3755;59.316;18.092;2023-04-06T03:48:13;0.40;99.90
7427;DHT22;3755;59.316;18.092;2023-04-06T03:50:41;0.50;99.90
7427;DHT22;3755;59.316;18.092;2023-04-06T03:53:08;0.50;99.90
7427;DHT22;3755;59.316;18.092;2023-04-06T03:55:36;0.00;99.90
7427;DHT22;3755;59.316;18.092;2023-04-06T03:58:07;0.60;99.90
7427;DHT22;3755;59.316;18.092;2023-04-06T04:00:34;0.60;99.90
7427;DHT22;3755;59.316;18.092;2023-04-06T04:03:04;0.70;99.90
7427;DHT22;3755;59.316;18.092;2023-04-06T04:05:31;0.70;99.90
7427;DHT22;3755;59.316;18.092;2023-04-06T04:07:59;0.60;99.90
7427;DHT22;3755;59.316;18.092;2023-04-06T04:10:26;0.60;99.90
7427;DHT22;3755;59.316;18.092;2023-04-06T04:12:56;0.60;99.90
7427;DHT22;3755;59.316;18.092;2023-04-06T04:15:24;0.60;99.90
7427;DHT22;3755;59.316;18.092;2023-04-06T04:17:51;0.60;99.90
7427;DHT22;3755;59.316;18.092;2023-04-06T04:20:21;0.70;99.90
7427;DHT22;3755;59.316;18.092;2023-04-06T04:22:48;0.70;99.90
7427;DHT22;3755;59.316;18.092;2023-04-06T04:25:17;0.80;99.90
7427;DHT22;3755;59.316;18.092;2023-04-06T04:27:47;0.80;99.90
7427;DHT22;3755;59.316;18.092;2023-04-06T04:30:18;0.90;99.90
7427;DHT22;3755;59.316;18.092;2023-04-06T04:32:51;0.90;99.90
7427;DHT22;3755;59.316;18.092;2023-04-06T04:35:27;0.90;99.90
7427;DHT22;3755;59.316;18.092;2023-04-06T04:37:56;0.90;99.90
7427;DHT22;3755;59.316;18.092;2023-04-06T04:40:33;1.00;99.90
7427;DHT22;3755;59.316;18.092;2023-04-06T04:43:03;1.00;99.90
7427;DHT22;3755;59.316;18.092;2023-04-06T04:45:31;1.10;99.90
7427;DHT22;3755;59.316;18.092;2023-04-06T04:48:13;1.10;99.90
7427;DHT22;3755;59.316;18.092;2023-04-06T04:50:52;1.10;99.90
7427;DHT22;3755;59.316;18.092;2023-04-06T04:53:22;1.10;99.90
7427;DHT22;3755;59.316;18.092;2023-04-06T04:55:50;1.20;99.90
7427;DHT22;3755;59.316;18.092;2023-04-06T04:58:18;1.20;99.90
7427;DHT22;3755;59.316;18.092;2023-04-06T05:00:52;1.20;99.90
7427;DHT22;3755;59.316;18.092;2023-04-06T05:03:36;1.30;99.90
7427;DHT22;3755;59.316;18.092;2023-04-06T05:56:23;1.80;99.90
7427;DHT22;3755;59.316;18.092;2023-04-06T05:59:10;1.80;99.90
7427;DHT22;3755;59.316;18.092;2023-04-06T06:01:58;1.90;99.90
7427;DHT22;3755;59.316;18.092;2023-04-06T06:04:40;2.00;99.90
7427;DHT22;3755;59.316;18.092;2023-04-06T06:07:25;2.00;99.90
7427;DHT22;3755;59.316;18.092;2023-04-06T06:20:20;2.10;99.90
7427;DHT22;3755;59.316;18.092;2023-04-06T06:22:59;2.20;99.90
7427;DHT22;3755;59.316;18.092;2023-04-06T06:26:25;2.30;99.90
7427;DHT22;3755;59.316;18.092;2023-04-06T06:29:06;2.40;99.90
7427;DHT22;3755;59.316;18.092;2023-04-06T06:31:40;2.40;99.90
7427;DHT22;3755;59.316;18.092;2023-04-06T06:34:08;2.50;99.90
7427;DHT22;3755;59.316;18.092;2023-04-06T06:36:38;2.50;99.90
7427;DHT22;3755;59.316;18.092;2023-04-06T06:39:15;2.60;99.90
7427;DHT22;3755;59.316;18.092;2023-04-06T06:41:43;2.60;99.90
7427;DHT22;3755;59.316;18.092;2023-04-06T06:44:13;2.60;99.90
7427;DHT22;3755;59.316;18.092;2023-04-06T06:46:58;2.70;99.90
7427;DHT22;3755;59.316;18.092;2023-04-06T06:49:25;2.80;99.90
7427;DHT22;3755;59.316;18.092;2023-04-06T06:51:55;2.90;99.90
7427;DHT22;3755;59.316;18.092;2023-04-06T06:54:26;2.80;99.90
7427;DHT22;3755;59.316;18.092;2023-04-06T06:56:58;3.00;99.90
7427;DHT22;3755;59.316;18.092;2023-04-06T06:59:30;3.10;99.90
7427;DHT22;3755;59.316;18.092;2023-04-06T07:02:02;3.10;99.90
7427;DHT22;3755;59.316;18.092;2023-04-06T07:04:30;3.20;99.90
7427;DHT22;3755;59.316;18.092;2023-04-06T07:07:13;3.30;99.90
7427;DHT22;3755;59.316;18.092;2023-04-06T07:09:41;3.50;99.90
7427;DHT22;3755;59.316;18.092;2023-04-06T07:12:13;3.50;99.90
7427;DHT22;3755;59.316;18.092;2023-04-06T07:14:55;3.60;99.90
7427;DHT22;3755;59.316;18.092;2023-04-06T07:17:23;3.70;99.90
7427;DHT22;3755;59.316;18.092;2023-04-06T07:20:04;3.70;99.90
7427;DHT22;3755;59.316;18.092;2023-04-06T07:25:43;3.80;99.90
7427;DHT22;3755;59.316;18.092;2023-04-06T07:28:33;3.80;99.90
7427;DHT22;3755;59.316;18.092;2023-04-06T07:31:03;3.90;99.90
7427;DHT22;3755;59.316;18.092;2023-04-06T07:33:45;3.90;99.90
7427;DHT22;3755;59.316;18.092;2023-04-06T07:36:14;4.00;99.90
7427;DHT22;3755;59.316;18.092;2023-04-06T07:38:55;3.90;99.90
7427;DHT22;3755;59.316;18.092;2023-04-06T07:41:24;3.90;99.90
7427;DHT22;3755;59.316;18.092;2023-04-06T07:43:52;4.00;99.90
7427;DHT22;3755;59.316;18.092;2023-04-06T07:46:21;4.10;99.90
7427;DHT22;3755;59.316;18.092;2023-04-06T07:48:50;4.20;99.90
7427;DHT22;3755;59.316;18.092;2023-04-06T07:51:18;4.30;99.90
7427;DHT22;3755;59.316;18.092;2023-04-06T07:54:03;4.40;99.90
7427;DHT22;3755;59.316;18.092;2023-04-06T07:56:34;4.40;99.90
7427;DHT22;3755;59.316;18.092;2023-04-06T07:59:02;4.50;99.90
7427;DHT22;3755;59.316;18.092;2023-04-06T08:01:29;4.40;99.90
7427;DHT22;3755;59.316;18.092;2023-04-06T08:03:59;4.30;99.90
7427;DHT22;3755;59.316;18.092;2023-04-06T08:06:30;4.40;99.90
7427;DHT22;3755;59.316;18.092;2023-04-06T08:09:03;4.40;99.90
7427;DHT22;3755;59.316;18.092;2023-04-06T08:11:37;4.40;99.90
7427;DHT22;3755;59.316;18.092;2023-04-06T08:14:20;4.40;99.90
7427;DHT22;3755;59.316;18.092;2023-04-06T08:16:48;4.40;99.90
7427;DHT22;3755;59.316;18.092;2023-04-06T08:19:17;4.40;99.90
7427;DHT22;3755;59.316;18.092;2023-04-06T08:21:46;4.40;99.90
7427;DHT22;3755;59.316;18.092;2023-04-06T08:24:39;4.40;99.90
7427;DHT22;3755;59.316;18.092;2023-04-06T08:27:09;4.50;99.90
7427;DHT22;3755;59.316;18.092;2023-04-06T08:29:50;4.40;99.90
7427;DHT22;3755;59.316;18.092;2023-04-06T08:32:21;4.60;99.90
7427;DHT22;3755;59.316;18.092;2023-04-06T08:35:02;4.70;99.90
7427;DHT22;3755;59.316;18.092;2023-04-06T08:54:28;4.90;99.90
7427;DHT22;3755;59.316;18.092;2023-04-06T08:57:23;4.60;99.90
7427;DHT22;3755;59.316;18.092;2023-04-06T09:03:39;4.70;99.90
7427;DHT22;3755;59.316;18.092;2023-04-06T09:06:08;4.90;99.90
7427;DHT22;3755;59.316;18.092;2023-04-06T09:08:43;4.90;99.90
7427;DHT22;3755;59.316;18.092;2023-04-06T09:11:28;4.90;99.90
7427;DHT22;3755;59.316;18.092;2023-04-06T09:14:34;5.10;99.90
7427;DHT22;3755;59.316;18.092;2023-04-06T09:17:20;5.30;99.90
7427;DHT22;3755;59.316;18.092;2023-04-06T09:19:50;5.30;99.90
7427;DHT22;3755;59.316;18.092;2023-04-06T09:22:40;5.30;99.90
7427;DHT22;3755;59.316;18.092;2023-04-06T09:25:33;5.60;99.90
7427;DHT22;3755;59.316;18.092;2023-04-06T09:50:26;6.10;99.90
7427;DHT22;3755;59.316;18.092;2023-04-06T09:53:30;6.40;99.90
7427;DHT22;3755;59.316;18.092;2023-04-06T09:56:25;6.50;99.30
7427;DHT22;3755;59.316;18.092;2023-04-06T09:59:41;6.70;99.50
7427;DHT22;3755;59.316;18.092;2023-04-06T10:02:32;6.70;98.40
7427;DHT22;3755;59.316;18.092;2023-04-06T10:05:33;6.80;98.60
7427;DHT22;3755;59.316;18.092;2023-04-06T10:08:10;6.80;99.00
7427;DHT22;3755;59.316;18.092;2023-04-06T10:10:52;6.70;98.20
7427;DHT22;3755;59.316;18.092;2023-04-06T10:13:34;6.80;98.10
7427;DHT22;3755;59.316;18.092;2023-04-06T10:16:23;6.80;98.30
7427;DHT22;3755;59.316;18.092;2023-04-06T10:19:13;6.70;98.70
7427;DHT22;3755;59.316;18.092;2023-04-06T10:21:55;6.50;98.30
7427;DHT22;3755;59.316;18.092;2023-04-06T10:24:25;6.40;98.60
7427;DHT22;3755;59.316;18.092;2023-04-06T10:26:58;6.40;98.60
7427;DHT22;3755;59.316;18.092;2023-04-06T10:29:27;6.20;99.10
7427;DHT22;3755;59.316;18.092;2023-04-06T10:31:55;6.30;98.90
7427;DHT22;3755;59.316;18.092;2023-04-06T10:34:23;6.40;99.40
7427;DHT22;3755;59.316;18.092;2023-04-06T10:37:46;6.50;99.70
7427;DHT22;3755;59.316;18.092;2023-04-06T10:40:31;6.60;99.50
7427;DHT22;3755;59.316;18.092;2023-04-06T10:43:13;6.40;98.30
7427;DHT22;3755;59.316;18.092;2023-04-06T10:45:43;6.50;98.40
7427;DHT22;3755;59.316;18.092;2023-04-06T10:48:36;6.60;98.70
7427;DHT22;3755;59.316;18.092;2023-04-06T10:51:13;6.70;98.50
7427;DHT22;3755;59.316;18.092;2023-04-06T10:54:11;6.80;98.20
7427;DHT22;3755;59.316;18.092;2023-04-06T10:56:54;6.90;98.60
7427;DHT22;3755;59.316;18.092;2023-04-06T11:00:10;6.80;98.70
7427;DHT22;3755;59.316;18.092;2023-04-06T11:02:59;6.60;98.30
7427;DHT22;3755;59.316;18.092;2023-04-06T11:05:44;6.40;98.60
7427;DHT22;3755;59.316;18.092;2023-04-06T11:08:28;6.30;99.00
7427;DHT22;3755;59.316;18.092;2023-04-06T11:20:53;6.30;98.90
7427;DHT22;3755;59.316;18.092;2023-04-06T11:24:06;6.20;99.10
7427;DHT22;3755;59.316;18.092;2023-04-06T11:26:49;6.20;99.60
7427;DHT22;3755;59.316;18.092;2023-04-06T11:29:32;6.20;99.80
7427;DHT22;3755;59.316;18.092;2023-04-06T11:32:20;6.20;99.60
7427;DHT22;3755;59.316;18.092;2023-04-06T11:35:20;6.40;99.70
7427;DHT22;3755;59.316;18.092;2023-04-06T11:48:19;6.80;99.00
7427;DHT22;3755;59.316;18.092;2023-04-06T11:51:20;6.80;98.70
7427;DHT22;3755;59.316;18.092;2023-04-06T11:54:05;6.70;99.70
7427;DHT22;3755;59.316;18.092;2023-04-06T11:56:46;6.50;99.90
7427;DHT22;3755;59.316;18.092;2023-04-06T11:59:31;6.40;99.90
7427;DHT22;3755;59.316;18.092;2023-04-06T12:02:00;6.40;99.90
7427;DHT22;3755;59.316;18.092;2023-04-06T12:30:41;6.40;99.90
7427;DHT22;3755;59.316;18.092;2023-04-06T12:33:15;6.20;99.90
7427;DHT22;3755;59.316;18.092;2023-04-06T12:35:56;6.20;99.90
7427;DHT22;3755;59.316;18.092;2023-04-06T12:38:38;5.90;99.90
7427;DHT22;3755;59.316;18.092;2023-04-06T12:44:37;5.90;99.90
7427;DHT22;3755;59.316;18.092;2023-04-06T12:53:58;6.10;99.90
7427;DHT22;3755;59.316;18.092;2023-04-06T12:59:03;6.00;99.90
7427;DHT22;3755;59.316;18.092;2023-04-06T13:05:50;6.20;99.90
7427;DHT22;3755;59.316;18.092;2023-04-06T13:08:19;6.20;99.90
7427;DHT22;3755;59.316;18.092;2023-04-06T13:11:05;6.20;99.90
7427;DHT22;3755;59.316;18.092;2023-04-06T13:13:48;6.30;99.90
7427;DHT22;3755;59.316;18.092;2023-04-06T13:16:30;6.20;99.90
7427;DHT22;3755;59.316;18.092;2023-04-06T13:19:08;6.20;99.90
7427;DHT22;3755;59.316;18.092;2023-04-06T13:21:50;6.10;99.90
7427;DHT22;3755;59.316;18.092;2023-04-06T13:24:32;6.10;99.90
7427;DHT22;3755;59.316;18.092;2023-04-06T13:37:01;6.10;99.90
7427;DHT22;3755;59.316;18.092;2023-04-06T13:39:42;6.00;99.90
7427;DHT22;3755;59.316;18.092;2023-04-06T13:42:23;6.00;99.90
7427;DHT22;3755;59.316;18.092;2023-04-06T13:45:07;6.00;99.90
7427;DHT22;3755;59.316;18.092;2023-04-06T14:11:17;6.20;99.90
7427;DHT22;3755;59.316;18.092;2023-04-06T14:14:09;6.30;99.90
7427;DHT22;3755;59.316;18.092;2023-04-06T14:17:03;6.30;99.90
7427;DHT22;3755;59.316;18.092;2023-04-06T14:20:08;6.30;99.90
7427;DHT22;3755;59.316;18.092;2023-04-06T14:23:00;6.30;99.90
7427;DHT22;3755;59.316;18.092;2023-04-06T14:26:04;6.30;99.90
7427;DHT22;3755;59.316;18.092;2023-04-06T14:35:57;6.60;99.90
7427;DHT22;3755;59.316;18.092;2023-04-06T14:44:08;6.30;99.90
7427;DHT22;3755;59.316;18.092;2023-04-06T14:47:02;6.10;99.90
7427;DHT22;3755;59.316;18.092;2023-04-06T14:49:44;6.00;99.90
7427;DHT22;3755;59.316;18.092;2023-04-06T14:52:41;6.10;99.90
7427;DHT22;3755;59.316;18.092;2023-04-06T14:55:22;6.00;99.90
7427;DHT22;3755;59.316;18.092;2023-04-06T14:57:54;5.80;99.90
7427;DHT22;3755;59.316;18.092;2023-04-06T15:00:37;5.50;99.90
7427;DHT22;3755;59.316;18.092;2023-04-06T15:03:11;5.40;99.90
7427;DHT22;3755;59.316;18.092;2023-04-06T15:05:54;5.30;99.90
7427;DHT22;3755;59.316;18.092;2023-04-06T15:08:42;5.20;99.90
7427;DHT22;3755;59.316;18.092;2023-04-06T15:11:23;5.00;99.90
7427;DHT22;3755;59.316;18.092;2023-04-06T15:13:53;4.80;99.90
7427;DHT22;3755;59.316;18.092;2023-04-06T15:16:21;4.70;99.90
7427;DHT22;3755;59.316;18.092;2023-04-06T15:19:07;4.80;99.90
7427;DHT22;3755;59.316;18.092;2023-04-06T15:22:09;4.80;99.90
7427;DHT22;3755;59.316;18.092;2023-04-06T15:28:16;4.80;99.90
7427;DHT22;3755;59.316;18.092;2023-04-06T15:30:58;4.80;99.90
7427;DHT22;3755;59.316;18.092;2023-04-06T15:33:39;4.70;99.90
7427;DHT22;3755;59.316;18.092;2023-04-06T15:36:28;4.70;99.90
7427;DHT22;3755;59.316;18.092;2023-04-06T15:39:27;4.60;99.90
7427;DHT22;3755;59.316;18.092;2023-04-06T15:42:22;4.30;99.90
7427;DHT22;3755;59.316;18.092;2023-04-06T16:05:03;4.40;99.90
7427;DHT22;3755;59.316;18.092;2023-04-06T16:07:47;4.30;99.90
7427;DHT22;3755;59.316;18.092;2023-04-06T16:18:40;4.30;99.90
7427;DHT22;3755;59.316;18.092;2023-04-06T16:34:30;3.90;99.90
7427;DHT22;3755;59.316;18.092;2023-04-06T16:37:15;3.80;99.90
7427;DHT22;3755;59.316;18.092;2023-04-06T16:40:01;3.80;99.90
7427;DHT22;3755;59.316;18.092;2023-04-06T16:45:59;3.70;99.90
7427;DHT22;3755;59.316;18.092;2023-04-06T16:48:42;3.60;99.90
7427;DHT22;3755;59.316;18.092;2023-04-06T17:31:05;3.20;99.90
7427;DHT22;3755;59.316;18.092;2023-04-06T17:52:03;2.60;99.90
7427;DHT22;3755;59.316;18.092;2023-04-06T17:58:32;2.50;99.90
7427;DHT22;3755;59.316;18.092;2023-04-06T18:01:14;2.40;99.90
7427;DHT22;3755;59.316;18.092;2023-04-06T18:03:58;2.40;99.90
7427;DHT22;3755;59.316;18.092;2023-04-06T18:07:02;2.40;99.90
7427;DHT22;3755;59.316;18.092;2023-04-06T18:22:18;2.40;99.90
7427;DHT22;3755;59.316;18.092;2023-04-06T18:25:14;2.40;99.90
7427;DHT22;3755;59.316;18.092;2023-04-06T18:36:43;2.40;99.90
7427;DHT22;3755;59.316;18.092;2023-04-06T19:04:23;2.10;99.90
7427;DHT22;3755;59.316;18.092;2023-04-06T19:07:09;2.10;99.90
7427;DHT22;3755;59.316;18.092;2023-04-06T19:09:55;2.10;99.90
7427;DHT22;3755;59.316;18.092;2023-04-06T20:20:18;2.00;99.90
7427;DHT22;3755;59.316;18.092;2023-04-06T20:23:00;1.90;99.90
7427;DHT22;3755;59.316;18.092;2023-04-06T20:25:45;1.90;99.90
7427;DHT22;3755;59.316;18.092;2023-04-06T20:28:26;2.00;99.90
7427;DHT22;3755;59.316;18.092;2023-04-06T20:31:38;1.90;99.90
7427;DHT22;3755;59.316;18.092;2023-04-06T21:31:29;1.70;99.90
7427;DHT22;3755;59.316;18.092;2023-04-06T21:34:14;1.60;99.90
7427;DHT22;3755;59.316;18.092;2023-04-06T21:36:57;1.60;99.90
7427;DHT22;3755;59.316;18.092;2023-04-06T21:39:38;1.60;99.90
7427;DHT22;3755;59.316;18.092;2023-04-06T21:42:25;1.60;99.90
7427;DHT22;3755;59.316;18.092;2023-04-06T21:45:12;1.60;99.90
7427;DHT22;3755;59.316;18.092;2023-04-06T21:57:03;1.60;99.90
7427;DHT22;3755;59.316;18.092;2023-04-06T21:59:30;1.60;99.90
7427;DHT22;3755;59.316;18.092;2023-04-06T22:01:59;1.60;99.90
7427;DHT22;3755;59.316;18.092;2023-04-06T22:04:26;2.00;99.90
7427;DHT22;3755;59.316;18.092;2023-04-06T22:06:57;1.70;99.90
7427;DHT22;3755;59.316;18.092;2023-04-06T22:09:27;1.60;99.90
7427;DHT22;3755;59.316;18.092;2023-04-06T22:12:00;1.60;99.90
7427;DHT22;3755;59.316;18.092;2023-04-06T22:14:33;1.60;99.90
7427;DHT22;3755;59.316;18.092;2023-04-06T22:17:01;1.70;99.90
7427;DHT22;3755;59.316;18.092;2023-04-06T22:19:29;1.70;99.90
7427;DHT22;3755;59.316;18.092;2023-04-06T22:21:57;1.70;99.90
7427;DHT22;3755;59.316;18.092;2023-04-06T22:24:25;1.70;99.90
7427;DHT22;3755;59.316;18.092;2023-04-06T22:26:56;1.70;99.90
7427;DHT22;3755;59.316;18.092;2023-04-06T22:29:28;1.60;99.90
7427;DHT22;3755;59.316;18.092;2023-04-06T22:32:11;1.60;99.90
7427;DHT22;3755;59.316;18.092;2023-04-06T22:34:41;1.70;99.90
7427;DHT22;3755;59.316;18.092;2023-04-06T22:37:09;1.70;99.90
7427;DHT22;3755;59.316;18.092;2023-04-06T22:39:37;1.70;99.90
7427;DHT22;3755;59.316;18.092;2023-04-06T22:42:05;1.70;99.90
7427;DHT22;3755;59.316;18.092;2023-04-06T22:44:32;1.70;99.90
7427;DHT22;3755;59.316;18.092;2023-04-06T22:47:00;1.70;99.90
7427;DHT22;3755;59.316;18.092;2023-04-06T22:49:33;1.70;99.90
7427;DHT22;3755;59.316;18.092;2023-04-06T22:52:00;1.60;99.90
7427;DHT22;3755;59.316;18.092;2023-04-06T22:54:28;1.60;99.90
7427;DHT22;3755;59.316;18.092;2023-04-06T22:56:55;1.60;99.90
7427;DHT22;3755;59.316;18.092;2023-04-06T22:59:23;1.60;99.90
7427;DHT22;3755;59.316;18.092;2023-04-06T23:01:50;1.60;99.90
7427;DHT22;3755;59.316;18.092;2023-04-06T23:04:18;1.60;99.90
7427;DHT22;3755;59.316;18.092;2023-04-06T23:06:46;1.60;99.90
7427;DHT22;3755;59.316;18.092;2023-04-06T23:09:21;1.60;99.90
7427;DHT22;3755;59.316;18.092;2023-04-06T23:11:48;1.60;99.90
7427;DHT22;3755;59.316;18.092;2023-04-06T23:14:19;1.60;99.90
7427;DHT22;3755;59.316;18.092;2023-04-06T23:16:48;1.60;99.90
7427;DHT22;3755;59.316;18.092;2023-04-06T23:19:16;1.60;99.90
7427;DHT22;3755;59.316;18.092;2023-04-06T23:21:43;1.60;99.90
7427;DHT22;3755;59.316;18.092;2023-04-06T23:24:13;1.60;99.90
7427;DHT22;3755;59.316;18.092;2023-04-06T23:26:41;1.60;99.90
7427;DHT22;3755;59.316;18.092;2023-04-06T23:29:09;1.60;99.90
7427;DHT22;3755;59.316;18.092;2023-04-06T23:31:38;1.60;99.90
7427;DHT22;3755;59.316;18.092;2023-04-06T23:34:05;1.60;99.90
7427;DHT22;3755;59.316;18.092;2023-04-06T23:36:35;1.60;99.90
7427;DHT22;3755;59.316;18.092;2023-04-06T23:39:03;1.70;99.90
7427;DHT22;3755;59.316;18.092;2023-04-06T23:41:32;1.60;99.90
7427;DHT22;3755;59.316;18.092;2023-04-06T23:44:01;1.60;99.90
7427;DHT22;3755;59.316;18.092;2023-04-06T23:46:29;1.60;99.90
7427;DHT22;3755;59.316;18.092;2023-04-06T23:48:58;1.70;99.90
7427;DHT22;3755;59.316;18.092;2023-04-06T23:51:27;1.70;99.90
7427;DHT22;3755;59.316;18.092;2023-04-06T23:53:54;1.60;99.90
7427;DHT22;3755;59.316;18.092;2023-04-06T23:56:22;1.70;99.90
7427;DHT22;3755;59.316;18.092;2023-04-06T23:58:51;1.60;99.90
